Time;durP1;ratioP1;P1;durP2;ratioP2;P2;SDS_P1;SDS_P2;PMS_P1;PMS_P2;Temp;Humidity;BMP_temperature;BMP_pressure;BME280_temperature;BME280_humidity;BME280_pressure;Samples;Min_cycle;Max_cycle;Signal;HPM_P1;HPM_P2
2023/07/11 00:02:03;;;;;;;;;;;22.00;63.30;;;21.20;57.38;99947.31;10284970;28;912;-67
2023/07/11 00:06:59;;;;;;;;;;;22.00;63.10;;;21.20;57.18;99949.97;10284892;28;881;-67
2023/07/11 00:11:54;;;;;;;;;;;22.00;62.80;;;21.21;57.19;99949.00;10285997;28;1910;-67
2023/07/11 00:16:49;;;;;;;;;;;22.00;62.80;;;21.23;57.14;99940.03;10285089;28;1019;-67
2023/07/11 00:21:45;;;;;;;;;;;22.00;63.00;;;21.22;57.24;99938.34;10285479;28;1149;-67
2023/07/11 00:26:40;;;;;;;;;;;22.10;63.10;;;21.19;57.14;99927.88;10284831;28;957;-67
2023/07/11 00:31:36;;;;;;;;;;;22.00;62.60;;;21.19;56.96;99925.22;10285690;28;1977;-67
2023/07/11 00:36:31;;;;;;;;;;;22.10;62.30;;;21.20;56.93;99924.31;10284174;28;956;-67
2023/07/11 00:41:27;;;;;;;;;;;22.00;62.00;;;21.26;56.99;99920.47;10285104;28;955;-67
2023/07/11 00:46:22;;;;;;;;;;;22.10;62.70;;;21.29;56.84;99906.19;10284427;28;954;-67
2023/07/11 00:51:17;;;;;;;;;;;22.10;62.70;;;21.29;57.01;99908.81;10285048;28;1957;-67
2023/07/11 00:56:13;;;;;;;;;;;22.10;62.80;;;21.26;56.86;99887.78;10284332;28;822;-67
2023/07/11 01:01:08;;;;;;;;;;;22.10;62.60;;;21.27;56.86;99900.94;10284213;28;783;-67
2023/07/11 01:06:04;;;;;;;;;;;22.10;62.50;;;21.30;56.99;99887.53;10283494;28;869;-67
2023/07/11 01:10:59;;;;;;;;;;;22.10;62.50;;;21.23;57.10;99881.72;10284502;28;1910;-67
2023/07/11 01:15:54;;;;;;;;;;;22.10;62.40;;;21.26;56.86;99877.19;10283895;28;798;-67
2023/07/11 01:20:50;;;;;;;;;;;22.10;62.50;;;21.30;56.90;99874.28;10288108;28;1504;-67
2023/07/11 01:25:45;;;;;;;;;;;22.20;62.70;;;21.32;56.83;99882.13;10292034;28;813;-67
2023/07/11 01:30:41;;;;;;;;;;;22.20;62.60;;;21.31;56.91;99870.69;10291273;28;1911;-67
2023/07/11 01:35:36;;;;;;;;;;;22.20;62.80;;;21.31;56.86;99870.69;10291170;28;770;-67
2023/07/11 01:40:31;;;;;;;;;;;22.20;62.60;;;21.33;56.88;99867.97;10290998;28;877;-67
2023/07/11 01:45:27;;;;;;;;;;;22.20;62.80;;;21.32;57.04;99860.94;10290852;28;782;-67
2023/07/11 01:50:22;;;;;;;;;;;22.20;62.90;;;21.35;56.99;99860.75;10291208;28;1902;-67
2023/07/11 01:55:17;;;;;;;;;;;22.20;62.80;;;21.33;56.89;99863.50;10290466;28;837;-67
2023/07/11 02:00:13;;;;;;;;;;;22.10;62.60;;;21.32;57.08;99861.78;10290498;28;907;-67
2023/07/11 02:05:08;;;;;;;;;;;22.20;62.80;;;21.32;57.16;99855.63;10289987;28;833;-67
2023/07/11 02:10:04;;;;;;;;;;;22.20;62.80;;;21.32;57.00;99855.63;10290408;28;1898;-67
2023/07/11 02:14:59;;;;;;;;;;;22.20;62.60;;;21.32;57.14;99853.81;10289637;28;813;-67
2023/07/11 02:19:54;;;;;;;;;;;22.20;62.60;;;21.31;56.90;99851.28;10288911;28;931;-67
2023/07/11 02:24:50;;;;;;;;;;;22.20;62.60;;;21.32;57.10;99845.88;10290286;28;1223;-67
2023/07/11 02:29:45;;;;;;;;;;;22.20;62.60;;;21.30;57.09;99838.94;10288578;28;1918;-67
2023/07/11 02:34:41;;;;;;;;;;;22.20;62.70;;;21.32;56.88;99834.41;10289466;28;949;-67
2023/07/11 02:39:36;;;;;;;;;;;22.20;62.40;;;21.31;57.03;99830.06;10288693;28;810;-67
2023/07/11 02:44:31;;;;;;;;;;;22.20;62.50;;;21.30;56.90;99821.28;10287995;28;971;-67
2023/07/11 02:49:27;;;;;;;;;;;22.20;62.40;;;21.30;57.00;99823.03;10289018;28;1963;-67
2023/07/11 02:54:22;;;;;;;;;;;22.10;62.30;;;21.29;56.86;99818.69;10288188;28;796;-67
2023/07/11 02:59:18;;;;;;;;;;;22.10;62.10;;;21.28;56.82;99809.03;10287343;28;889;-67
2023/07/11 03:04:13;;;;;;;;;;;22.10;62.30;;;21.27;56.92;99805.50;10287029;28;953;-67
2023/07/11 03:09:08;;;;;;;;;;;22.10;62.30;;;21.24;56.69;99801.22;10287491;28;1906;-67
2023/07/11 03:14:04;;;;;;;;;;;22.10;61.80;;;21.26;56.63;99800.31;10288583;28;868;-67
2023/07/11 03:18:59;;;;;;;;;;;22.10;61.80;;;21.26;56.78;99801.16;10287167;28;927;-67
2023/07/11 03:23:54;;;;;;;;;;;22.10;61.70;;;21.24;56.79;99790.63;10286738;28;1300;-67
2023/07/11 03:28:50;;;;;;;;;;;22.10;61.80;;;21.24;56.39;99785.31;10286784;28;1910;-67
2023/07/11 03:33:45;;;;;;;;;;;22.10;61.30;;;21.24;56.34;99781.81;10286674;28;857;-67
2023/07/11 03:38:41;;;;;;;;;;;22.10;61.40;;;21.24;56.36;99771.22;10286636;28;802;-67
2023/07/11 03:43:36;;;;;;;;;;;22.10;61.40;;;21.25;56.36;99775.59;10285561;28;861;-67
2023/07/11 03:48:31;;;;;;;;;;;22.10;61.20;;;21.24;56.41;99771.22;10285991;28;1902;-67
2023/07/11 03:53:27;;;;;;;;;;;22.10;61.20;;;21.23;56.35;99767.72;10286781;28;967;-67
2023/07/11 03:58:22;;;;;;;;;;;22.10;61.30;;;21.23;56.24;99765.06;10286240;28;803;-67
2023/07/11 04:03:18;;;;;;;;;;;22.10;61.10;;;21.22;56.20;99767.81;10285576;28;876;-67
2023/07/11 04:08:13;;;;;;;;;;;22.10;61.50;;;21.21;56.23;99761.66;10285429;28;789;-67
2023/07/11 04:13:08;;;;;;;;;;;22.10;61.10;;;21.22;56.14;99758.06;10285776;28;1913;-67
2023/07/11 04:18:04;;;;;;;;;;;22.10;60.90;;;21.21;56.04;99750.19;10285775;28;860;-67
2023/07/11 04:22:59;;;;;;;;;;;22.10;60.90;;;21.24;56.03;99756.16;10285034;28;1349;-66
2023/07/11 04:27:56;;;;;;;;;;;22.10;61.20;;;21.23;55.92;99746.53;10285639;28;829;-67
2023/07/11 04:32:51;;;;;;;;;;;22.00;61.00;;;21.23;55.95;99754.47;10284733;28;1926;-67
2023/07/11 04:37:47;;;;;;;;;;;22.00;61.30;;;21.24;55.99;99732.31;10285311;28;832;-67
2023/07/11 04:42:42;;;;;;;;;;;22.10;61.10;;;21.24;56.02;99734.97;10284056;28;905;-67
2023/07/11 04:47:37;;;;;;;;;;;22.10;61.10;;;21.24;56.10;99737.59;10285023;28;823;-70
2023/07/11 04:52:33;;;;;;;;;;;22.00;61.00;;;21.25;55.87;99730.53;10284305;28;1973;-67
2023/07/11 04:57:28;;;;;;;;;;;22.10;61.40;;;21.26;56.22;99723.44;10293340;28;866;-67
2023/07/11 05:02:24;;;;;;;;;;;22.10;61.30;;;21.26;55.99;99716.31;10291740;28;810;-68
2023/07/11 05:07:19;;;;;;;;;;;22.00;61.40;;;21.24;56.07;99716.41;10292780;28;829;-67
2023/07/11 05:12:15;;;;;;;;;;;22.00;61.30;;;21.24;56.09;99710.25;10291979;28;1976;-66
2023/07/11 05:17:10;;;;;;;;;;;22.00;61.10;;;21.23;55.90;99706.75;10291930;28;936;-67
2023/07/11 05:22:05;;;;;;;;;;;22.00;60.80;;;21.19;55.40;99709.66;10291613;28;1204;-67
2023/07/11 05:27:01;;;;;;;;;;;22.00;60.20;;;21.14;55.25;99702.00;10292026;28;933;-67
2023/07/11 05:31:56;;;;;;;;;;;22.00;60.40;;;21.13;54.74;99699.44;10291557;28;1983;-67
2023/07/11 05:36:52;;;;;;;;;;;22.00;60.10;;;21.09;54.34;99687.28;10290967;28;775;-66
2023/07/11 05:41:48;;;;;;;;;;;22.00;59.90;;;21.09;54.06;99682.88;10291578;28;875;-67
2023/07/11 05:46:43;;;;;;;;;;;21.90;59.50;;;21.07;54.15;99684.75;10290770;28;919;-66
2023/07/11 05:51:38;;;;;;;;;;;21.90;59.60;;;21.11;54.10;99680.09;10290533;28;1918;-67
2023/07/11 05:56:34;;;;;;;;;;;21.90;59.40;;;21.12;54.27;99674.72;10291020;28;858;-67
2023/07/11 06:01:29;;;;;;;;;;;21.90;59.50;;;21.14;54.16;99674.63;10290240;28;775;-66
2023/07/11 06:06:24;;;;;;;;;;;21.90;59.20;;;21.21;53.89;99668.03;10289161;28;778;-67
2023/07/11 06:11:20;;;;;;;;;;;21.90;58.80;;;21.24;53.55;99663.38;10290334;28;1906;-67
2023/07/11 06:16:15;;;;;;;;;;;22.00;58.80;;;21.28;53.64;99649.97;10289902;28;790;-66
2023/07/11 06:21:11;;;;;;;;;;;22.00;58.50;;;21.34;52.59;99653.09;10289381;28;1105;-67
2023/07/11 06:26:06;;;;;;;;;;;22.00;58.00;;;21.32;53.36;99647.03;10289119;28;806;-66
2023/07/11 06:31:01;;;;;;;;;;;22.00;58.50;;;21.34;53.66;99636.34;10288771;28;1975;-69
2023/07/11 06:35:57;;;;;;;;;;;22.00;58.60;;;21.35;53.82;99646.00;10247342;28;1123;-67
2023/07/11 06:40:52;;;;;;;;;;;22.00;58.80;;;21.36;53.80;99642.41;10248725;28;904;-67
2023/07/11 06:45:48;;;;;;;;;;;22.00;58.70;;;21.37;53.83;99641.47;10249021;28;934;-66
2023/07/11 06:50:43;;;;;;;;;;;22.00;58.90;;;21.38;53.85;99636.09;10248093;28;1963;-67
2023/07/11 06:55:38;;;;;;;;;;;22.00;59.10;;;21.39;54.06;99634.31;10247626;28;826;-67
2023/07/11 07:00:34;;;;;;;;;;;22.00;59.20;;;21.40;54.29;99622.75;10247686;28;826;-67
2023/07/11 07:05:29;;;;;;;;;;;22.00;59.40;;;21.41;54.31;99616.50;10246561;28;1046;-67
2023/07/11 07:10:25;;;;;;;;;;;22.00;59.40;;;21.42;54.19;99619.06;10246468;28;1906;-67
2023/07/11 07:15:20;;;;;;;;;;;22.00;59.60;;;21.42;54.44;99610.25;10246109;28;850;-67
2023/07/11 07:20:15;;;;;;;;;;;22.00;59.60;;;21.43;54.42;99618.13;10247478;28;876;-67
2023/07/11 07:25:11;;;;;;;;;;;22.10;59.90;;;21.44;54.86;99619.81;10246244;28;1288;-67
2023/07/11 07:30:06;;;;;;;;;;;22.10;60.20;;;21.44;54.98;99614.50;10246797;28;1914;-67
2023/07/11 07:35:01;;;;;;;;;;;22.10;60.40;;;21.46;54.98;99603.81;10245482;28;837;-67
2023/07/11 07:39:57;;;;;;;;;;;22.10;60.40;;;21.46;55.19;99601.16;10245914;28;802;-67
2023/07/11 07:44:54;;;;;;;;;;;22.10;60.50;;;21.47;55.39;99602.88;10245558;28;810;-67
2023/07/11 07:49:49;;;;;;;;;;;22.10;60.70;;;21.48;55.36;99593.94;10245416;28;1918;-67
2023/07/11 07:54:45;;;;;;;;;;;22.10;61.00;;;21.49;55.46;99584.22;10245637;28;871;-67
2023/07/11 07:59:40;;;;;;;;;;;22.10;61.00;;;21.48;55.44;99574.53;10245154;28;810;-67
2023/07/11 08:04:36;;;;;;;;;;;22.10;61.10;;;21.50;55.54;99581.47;10245009;28;925;-67
2023/07/11 08:09:31;;;;;;;;;;;22.10;60.80;;;21.53;55.28;99568.00;10249190;28;1914;-67
2023/07/11 08:14:26;;;;;;;;;;;22.10;60.80;;;21.53;55.39;99572.47;10285173;28;926;-66
2023/07/11 08:19:22;;;;;;;;;;;22.10;60.90;;;21.53;55.43;99570.66;10285686;28;912;-66
2023/07/11 08:24:17;;;;;;;;;;;22.10;60.90;;;21.54;55.26;99560.94;10284775;28;1237;-67
2023/07/11 08:29:13;;;;;;;;;;;22.10;61.10;;;21.55;55.39;99565.28;10284281;28;1914;-66
2023/07/11 08:34:08;;;;;;;;;;;22.10;61.20;;;21.56;55.43;99554.59;10285321;28;797;-67
2023/07/11 08:39:03;;;;;;;;;;;22.10;61.20;;;21.57;55.46;99553.63;10284666;28;943;-67
2023/07/11 08:43:59;;;;;;;;;;;22.10;61.40;;;21.56;55.65;99546.63;10284397;28;1004;-66
2023/07/11 08:48:54;;;;;;;;;;;22.10;61.70;;;21.57;55.54;99553.63;10283681;28;1910;-67
2023/07/11 08:53:50;;;;;;;;;;;22.10;61.20;;;21.61;55.74;99546.31;10284167;28;1285;-69
2023/07/11 08:58:45;;;;;;;;;;;22.10;61.50;;;21.62;55.58;99532.97;10284928;28;798;-70
2023/07/11 09:03:40;;;;;;;;;;;22.10;61.80;;;21.62;55.52;99538.28;10283943;28;850;-70
2023/07/11 09:08:36;;;;;;;;;;;22.10;61.60;;;21.63;55.33;99536.47;10284017;28;786;-69
2023/07/11 09:13:31;;;;;;;;;;;22.10;61.50;;;21.61;55.50;99531.28;10284539;28;1976;-69
2023/07/11 09:18:27;;;;;;;;;;;22.10;61.50;;;21.64;55.28;99535.50;10283921;28;805;-69
2023/07/11 09:23:22;;;;;;;;;;;22.20;61.60;;;21.65;55.28;99530.13;10283196;28;1322;-69
2023/07/11 09:28:17;;;;;;;;;;;22.20;61.40;;;21.66;55.49;99518.53;10283604;28;790;-69
2023/07/11 09:33:13;;;;;;;;;;;22.20;61.70;;;21.68;55.48;99521.13;10283258;28;1969;-69
2023/07/11 09:38:08;;;;;;;;;;;22.20;61.40;;;21.69;55.39;99520.16;10282739;28;896;-69
2023/07/11 09:43:04;;;;;;;;;;;22.20;61.50;;;21.69;55.29;99517.50;10290139;28;877;-69
2023/07/11 09:47:59;;;;;;;;;;;22.20;61.70;;;21.64;55.24;99514.28;10290721;28;797;-70
2023/07/11 09:52:55;;;;;;;;;;;22.20;61.40;;;21.56;55.90;99501.53;10290416;28;1961;-71
2023/07/11 09:57:51;;;;;;;;;;;22.20;62.00;;;21.54;55.71;99499.94;10290380;28;876;-70
2023/07/11 10:02:46;;;;;;;;;;;22.10;61.80;;;21.53;55.70;99506.16;10290211;28;840;-71
2023/07/11 10:07:42;;;;;;;;;;;22.10;61.80;;;21.51;55.75;99500.97;10289644;28;779;-71
2023/07/11 10:12:37;;;;;;;;;;;22.10;61.80;;;21.51;55.79;99500.09;10289657;28;1963;-70
2023/07/11 10:17:33;;;;;;;;;;;22.10;61.70;;;21.50;55.88;99491.28;10289473;28;817;-71
2023/07/11 10:22:29;;;;;;;;;;;22.10;61.60;;;21.49;55.70;99483.47;10289909;28;1400;-71
2023/07/11 10:27:24;;;;;;;;;;;22.10;61.60;;;21.49;55.79;99489.59;10289996;28;869;-70
2023/07/11 10:32:19;;;;;;;;;;;22.10;61.70;;;21.48;55.75;99476.44;10288275;28;1914;-71
2023/07/11 10:37:15;;;;;;;;;;;22.10;61.70;;;21.48;55.83;99476.44;10288677;28;818;-70
2023/07/11 10:42:10;;;;;;;;;;;22.10;61.70;;;21.48;55.69;99463.16;10289287;28;857;-68
2023/07/11 10:47:06;;;;;;;;;;;22.10;61.60;;;21.50;55.90;99469.22;10287690;28;984;-67
2023/07/11 10:52:01;;;;;;;;;;;22.10;61.90;;;21.50;55.77;99463.94;10287838;28;1906;-67
2023/07/11 10:56:56;;;;;;;;;;;22.10;62.00;;;21.50;55.76;99453.31;10288240;28;829;-67
2023/07/11 11:01:52;;;;;;;;;;;22.10;62.20;;;21.50;55.87;99440.06;10288136;28;923;-67
2023/07/11 11:06:50;;;;;;;;;;;22.10;62.50;;;21.51;56.08;99441.75;10288094;28;798;-67
2023/07/11 11:11:45;;;;;;;;;;;22.10;62.30;;;21.50;55.94;99430.31;10287908;28;1910;-67
2023/07/11 11:16:40;;;;;;;;;;;22.10;62.40;;;21.51;56.01;99423.19;10288066;28;861;-67
2023/07/11 11:21:36;;;;;;;;;;;22.10;62.40;;;21.52;56.03;99411.66;10287006;28;1115;-67
2023/07/11 11:26:31;;;;;;;;;;;22.10;62.50;;;21.52;56.14;99403.69;10286958;28;922;-68
2023/07/11 11:31:27;;;;;;;;;;;22.10;62.50;;;21.52;56.09;99403.69;10282158;28;1910;-67
2023/07/11 11:36:22;;;;;;;;;;;22.10;62.90;;;21.55;56.35;99403.50;10284710;28;826;-67
2023/07/11 11:41:17;;;;;;;;;;;22.10;63.30;;;21.56;56.49;99403.41;10283822;28;841;-67
2023/07/11 11:46:13;;;;;;;;;;;22.10;63.20;;;21.57;56.51;99391.84;10285188;28;837;-67
2023/07/11 11:51:08;;;;;;;;;;;22.20;63.50;;;21.58;56.73;99385.56;10284496;28;1906;-68
2023/07/11 11:56:05;;;;;;;;;;;22.20;63.70;;;21.59;56.41;99367.88;10284258;28;735;-68
2023/07/11 12:01:00;;;;;;;;;;;22.20;63.60;;;21.58;56.33;99367.00;10284262;28;802;-68
2023/07/11 12:05:55;;;;;;;;;;;22.20;63.30;;;21.58;56.38;99367.00;10282655;28;908;-67
2023/07/11 12:10:51;;;;;;;;;;;22.20;63.30;;;21.59;56.42;99358.13;10283179;28;1902;-68
2023/07/11 12:15:46;;;;;;;;;;;22.20;63.50;;;21.59;56.41;99363.41;10283512;28;814;-67
2023/07/11 12:20:42;;;;;;;;;;;22.20;63.20;;;21.59;56.52;99347.50;10282819;28;1208;-68
2023/07/11 12:25:37;;;;;;;;;;;22.20;63.10;;;21.59;56.65;99336.91;10283413;28;755;-67
2023/07/11 12:30:32;;;;;;;;;;;22.20;63.20;;;21.60;56.43;99329.78;10283203;28;1957;-68
2023/07/11 12:35:28;;;;;;;;;;;22.20;63.20;;;21.60;56.67;99329.78;10283037;28;778;-67
2023/07/11 12:40:24;;;;;;;;;;;22.20;63.40;;;21.60;56.69;99320.03;10282477;28;1042;-67
2023/07/11 12:45:20;;;;;;;;;;;22.20;63.60;;;21.61;56.76;99313.78;10282274;28;1008;-67
2023/07/11 12:50:15;;;;;;;;;;;22.20;64.30;;;21.62;56.67;99315.47;10282395;28;1969;-68
2023/07/11 12:55:11;;;;;;;;;;;22.20;63.40;;;21.63;56.87;99311.84;10283068;28;829;-67
2023/07/11 13:00:07;;;;;;;;;;;22.20;63.20;;;21.64;56.63;99305.63;10281739;28;1181;-68
2023/07/11 13:05:03;;;;;;;;;;;22.20;63.30;;;21.64;56.64;99305.63;10282316;28;1191;-68
2023/07/11 13:09:59;;;;;;;;;;;22.20;63.20;;;21.70;56.44;99295.56;10281947;28;1906;-67
2023/07/11 13:14:54;;;;;;;;;;;22.30;62.90;;;21.68;56.68;99293.00;10284500;28;1255;-67
2023/07/11 13:19:50;;;;;;;;;;;22.30;63.10;;;21.69;56.65;99280.56;10290011;28;854;-67
2023/07/11 13:24:45;;;;;;;;;;;22.30;63.10;;;21.70;56.63;99279.66;10290222;28;1161;-67
2023/07/11 13:29:41;;;;;;;;;;;22.30;63.20;;;21.71;56.70;99276.88;10290059;28;1913;-67
2023/07/11 13:34:36;;;;;;;;;;;22.30;63.10;;;21.72;56.63;99267.09;10289349;28;867;-67
2023/07/11 13:39:34;;;;;;;;;;;22.30;63.10;;;21.72;56.69;99260.03;10289207;28;774;-67
2023/07/11 13:44:29;;;;;;;;;;;22.30;63.10;;;21.75;56.49;99256.31;10289527;28;782;-68
2023/07/11 13:49:25;;;;;;;;;;;22.30;62.90;;;21.74;56.44;99242.19;10288768;28;1914;-67
2023/07/11 13:54:21;;;;;;;;;;;22.30;62.60;;;21.76;56.42;99239.44;10288776;28;754;-68
2023/07/11 13:59:16;;;;;;;;;;;22.30;62.60;;;21.78;56.26;99229.56;10288442;28;852;-67
2023/07/11 14:04:11;;;;;;;;;;;22.40;62.60;;;21.79;56.50;99221.50;10288607;28;981;-68
2023/07/11 14:09:07;;;;;;;;;;;22.40;62.60;;;21.78;56.38;99214.50;10288365;28;1914;-68
2023/07/11 14:14:02;;;;;;;;;;;22.40;62.60;;;21.80;56.35;99209.09;10287103;28;909;-68
2023/07/11 14:18:58;;;;;;;;;;;22.40;62.60;;;21.81;56.27;99197.53;10287846;28;882;-68
2023/07/11 14:23:53;;;;;;;;;;;22.40;62.70;;;21.84;56.16;99189.34;10287258;28;1307;-68
2023/07/11 14:28:49;;;;;;;;;;;22.40;62.70;;;21.86;56.38;99198.06;10286678;28;1221;-67
2023/07/11 14:33:44;;;;;;;;;;;22.40;62.80;;;21.86;56.17;99185.63;10286765;28;1906;-67
2023/07/11 14:38:40;;;;;;;;;;;22.50;62.80;;;21.87;56.35;99186.47;10287172;28;869;-67
2023/07/11 14:43:35;;;;;;;;;;;22.50;62.80;;;21.89;56.20;99179.25;10286622;28;931;-67
2023/07/11 14:48:31;;;;;;;;;;;22.50;62.70;;;21.89;56.46;99176.63;10286775;28;859;-67
2023/07/11 14:53:26;;;;;;;;;;;22.50;62.90;;;21.91;56.42;99174.72;10286762;28;1906;-67
2023/07/11 14:58:21;;;;;;;;;;;22.50;62.80;;;21.94;56.20;99173.66;10286515;28;699;-67
2023/07/11 15:03:17;;;;;;;;;;;22.50;62.90;;;21.94;56.24;99166.53;10286423;28;859;-67
2023/07/11 15:08:12;;;;;;;;;;;22.50;62.60;;;21.97;56.14;99168.97;10287000;28;857;-66
2023/07/11 15:13:08;;;;;;;;;;;22.60;62.90;;;22.00;56.09;99162.59;10287101;28;1910;-67
2023/07/11 15:18:03;;;;;;;;;;;22.50;62.70;;;22.00;56.35;99157.28;10287722;28;886;-67
2023/07/11 15:22:58;;;;;;;;;;;22.60;62.90;;;22.02;56.44;99153.56;10286816;28;1419;-66
2023/07/11 15:27:54;;;;;;;;;;;22.60;63.10;;;22.03;56.50;99143.78;10287465;28;889;-67
2023/07/11 15:32:49;;;;;;;;;;;22.60;63.10;;;22.05;56.50;99142.72;10286468;28;1979;-67
2023/07/11 15:37:45;;;;;;;;;;;22.70;63.40;;;22.06;56.58;99141.78;10285740;28;872;-66
2023/07/11 15:42:40;;;;;;;;;;;22.70;63.40;;;22.08;56.47;99137.19;10286632;28;834;-67
2023/07/11 15:47:35;;;;;;;;;;;22.70;63.40;;;22.09;56.42;99130.94;10286069;28;906;-67
2023/07/11 15:52:31;;;;;;;;;;;22.70;63.30;;;22.10;56.46;99119.38;10285262;28;1914;-67
2023/07/11 15:57:26;;;;;;;;;;;22.70;64.20;;;22.12;56.53;99113.13;10286822;28;862;-67
2023/07/11 16:02:22;;;;;;;;;;;22.70;63.40;;;22.14;56.61;99108.53;10285431;28;814;-67
2023/07/11 16:07:17;;;;;;;;;;;22.70;63.40;;;22.15;56.31;99092.50;10285958;28;786;-67
2023/07/11 16:12:12;;;;;;;;;;;22.70;63.20;;;22.16;56.30;99088.88;10284604;28;1891;-66
2023/07/11 16:17:08;;;;;;;;;;;22.70;63.20;;;22.21;56.33;99077.97;10284945;28;925;-67
2023/07/11 16:22:03;;;;;;;;;;;22.80;63.20;;;22.20;56.19;99074.47;10284411;28;1086;-66
2023/07/11 16:26:58;;;;;;;;;;;22.80;63.10;;;22.20;56.67;99076.28;10284803;28;889;-67
2023/07/11 16:31:54;;;;;;;;;;;22.80;63.30;;;22.20;56.79;99071.81;10284348;28;1923;-66
2023/07/11 16:36:50;;;;;;;;;;;22.80;63.70;;;22.21;56.80;99068.19;10284629;28;850;-66
2023/07/11 16:41:46;;;;;;;;;;;22.80;63.50;;;22.23;56.63;99060.13;10284324;28;864;-66
2023/07/11 16:46:41;;;;;;;;;;;22.80;63.50;;;22.23;56.80;99065.44;10283732;28;818;-66
2023/07/11 16:51:36;;;;;;;;;;;22.80;63.50;;;22.23;56.88;99047.69;10290110;28;1977;-67
2023/07/11 16:56:32;;;;;;;;;;;22.90;63.70;;;22.25;56.54;99045.78;10293137;28;873;-66
2023/07/11 17:01:27;;;;;;;;;;;22.90;63.50;;;22.28;56.81;99036.75;10288588;28;1114;-67
2023/07/11 17:06:23;;;;;;;;;;;22.90;63.40;;;22.29;56.48;99047.25;10272417;28;745;-67
2023/07/11 17:11:18;;;;;;;;;;;22.90;63.40;;;22.30;56.52;99019.75;10290340;28;1914;-66
2023/07/11 17:16:13;;;;;;;;;;;22.90;63.50;;;22.31;56.50;99020.59;10289116;28;944;-66
2023/07/11 17:21:09;;;;;;;;;;;22.90;63.50;;;22.31;56.47;99004.66;10289803;28;1065;-66
2023/07/11 17:26:05;;;;;;;;;;;22.90;63.50;;;22.33;56.50;99013.38;10251955;28;1180;-68
2023/07/11 17:31:00;;;;;;;;;;;22.90;63.60;;;22.33;56.65;99010.72;10248396;28;1918;-68
2023/07/11 17:35:55;;;;;;;;;;;23.00;63.50;;;22.33;56.70;99002.75;10248305;28;901;-70
2023/07/11 17:40:51;;;;;;;;;;;22.90;63.50;;;22.36;56.83;98997.19;10247679;28;885;-67
2023/07/11 17:45:46;;;;;;;;;;;23.00;63.60;;;22.36;56.84;98978.63;10248544;28;929;-68
2023/07/11 17:50:42;;;;;;;;;;;23.00;63.70;;;22.37;56.75;98972.34;10247994;28;1923;-68
2023/07/11 17:55:37;;;;;;;;;;;23.00;63.60;;;22.38;56.77;98955.47;10248288;28;885;-68
2023/07/11 18:00:32;;;;;;;;;;;23.00;63.60;;;22.38;56.91;98958.13;10246721;28;755;-71
2023/07/11 18:05:28;;;;;;;;;;;23.10;63.70;;;22.38;56.70;98958.13;10247926;28;818;-67
2023/07/11 18:10:23;;;;;;;;;;;23.10;63.70;;;22.40;56.71;98963.28;10247599;28;2009;-70
2023/07/11 18:15:19;;;;;;;;;;;23.10;63.70;;;22.40;56.81;98955.31;10247425;28;871;-68
2023/07/11 18:20:15;;;;;;;;;;;23.10;63.70;;;22.39;56.91;98965.09;10247223;28;1139;-69
2023/07/11 18:25:10;;;;;;;;;;;23.10;63.70;;;22.42;56.84;98961.38;10261492;28;1861;-69
2023/07/11 18:30:06;;;;;;;;;;;23.10;63.70;;;22.44;56.68;98948.84;10289306;28;1981;-68
2023/07/11 18:35:01;;;;;;;;;;;23.10;63.50;;;22.46;56.80;98947.75;10262788;28;904;-68
2023/07/11 18:39:56;;;;;;;;;;;23.20;63.70;;;22.47;56.87;98944.13;10248351;28;775;-69
2023/07/11 18:44:52;;;;;;;;;;;23.20;63.70;;;22.51;56.75;98952.72;10248105;28;1201;-69
2023/07/11 18:49:48;;;;;;;;;;;23.20;63.50;;;22.53;56.65;98950.78;10247730;28;1910;-69
2023/07/11 18:54:43;;;;;;;;;;;23.20;63.50;;;22.53;56.80;98929.53;10247834;28;869;-68
2023/07/11 18:59:39;;;;;;;;;;;23.20;63.50;;;22.54;56.80;98925.94;10261786;28;869;-69
2023/07/11 19:04:35;;;;;;;;;;;23.20;63.60;;;22.54;56.89;98917.97;10287885;28;969;-70
2023/07/11 19:09:30;;;;;;;;;;;23.20;63.70;;;22.55;57.01;98914.34;10287707;28;1914;-69
2023/07/11 19:14:25;;;;;;;;;;;23.20;63.60;;;22.53;56.93;98893.22;10287733;28;896;-70
2023/07/11 19:19:21;;;;;;;;;;;23.20;63.80;;;22.53;56.87;98879.94;10287471;28;867;-69
2023/07/11 19:24:16;;;;;;;;;;;23.30;63.80;;;22.54;56.96;98894.91;10269441;28;1272;-69
2023/07/11 19:29:12;;;;;;;;;;;23.30;63.80;;;22.54;57.00;98889.59;10287791;28;1903;-69
2023/07/11 19:34:07;;;;;;;;;;;23.30;63.80;;;22.55;57.25;98898.41;10286761;28;888;-69
2023/07/11 19:39:02;;;;;;;;;;;23.30;63.80;;;22.56;57.14;98905.44;10286101;28;933;-73
2023/07/11 19:43:59;;;;;;;;;;;23.30;63.70;;;22.54;57.13;98920.63;10286982;28;822;-69
2023/07/11 19:48:55;;;;;;;;;;;23.30;63.70;;;22.56;57.26;98955.88;10286787;28;989;-69
2023/07/11 19:53:50;;;;;;;;;;;23.30;63.70;;;22.57;57.17;98935.47;10286063;28;1906;-69
2023/07/11 19:58:46;;;;;;;;;;;23.40;63.60;;;22.58;57.27;98913.25;10285971;28;872;-69
2023/07/11 20:03:41;;;;;;;;;;;23.40;63.60;;;22.58;57.14;98922.06;10286260;28;830;-69
2023/07/11 20:08:37;;;;;;;;;;;23.40;63.50;;;22.58;57.26;98899.97;10285623;28;763;-69
2023/07/11 20:13:32;;;;;;;;;;;23.40;63.40;;;22.59;56.75;98917.63;10284776;28;1965;-69
2023/07/11 20:18:27;;;;;;;;;;;23.40;63.40;;;22.58;56.92;98906.13;10284746;28;881;-69
2023/07/11 20:23:23;;;;;;;;;;;23.40;63.30;;;22.58;56.94;98895.50;10284780;28;1102;-69
2023/07/11 20:28:18;;;;;;;;;;;23.40;63.20;;;22.60;56.91;98903.38;10285685;28;869;-69
2023/07/11 20:33:14;;;;;;;;;;;23.40;63.20;;;22.59;57.14;98909.66;10284951;28;1959;-69
2023/07/11 20:38:09;;;;;;;;;;;23.50;63.20;;;22.60;56.93;98898.06;10284758;28;798;-69
2023/07/11 20:43:04;;;;;;;;;;;23.50;63.20;;;22.60;57.08;98895.41;10284853;28;821;-67
2023/07/11 20:48:00;;;;;;;;;;;23.50;63.10;;;22.62;57.03;98881.03;10285121;28;926;-68
2023/07/11 20:52:55;;;;;;;;;;;23.50;63.30;;;22.63;57.14;98861.47;10284416;28;1960;-69
2023/07/11 20:57:51;;;;;;;;;;;23.50;63.40;;;22.65;57.18;98861.38;10284320;28;949;-68
2023/07/11 21:02:46;;;;;;;;;;;23.50;63.40;;;22.65;57.15;98858.72;10284806;28;823;-68
2023/07/11 21:07:42;;;;;;;;;;;23.50;63.30;;;22.65;56.89;98842.78;10284863;28;786;-68
2023/07/11 21:12:37;;;;;;;;;;;23.50;63.20;;;22.66;57.27;98860.38;10284250;28;1906;-68
2023/07/11 21:17:32;;;;;;;;;;;23.50;63.10;;;22.67;57.06;98859.44;10284648;28;788;-68
2023/07/11 21:22:28;;;;;;;;;;;23.50;63.10;;;22.68;57.02;98858.47;10283415;28;1427;-68
2023/07/11 21:27:23;;;;;;;;;;;23.60;63.20;;;22.68;57.35;98867.28;10283856;28;869;-68
2023/07/11 21:32:19;;;;;;;;;;;23.60;63.30;;;22.69;57.44;98876.09;10283442;28;1985;-68
2023/07/11 21:37:14;;;;;;;;;;;23.60;63.30;;;22.71;57.23;98879.47;10287926;28;888;-67
2023/07/11 21:42:09;;;;;;;;;;;23.60;63.30;;;22.71;57.27;98867.03;10291212;28;868;-67
2023/07/11 21:47:05;;;;;;;;;;;23.60;63.20;;;22.71;57.15;98861.72;10291242;28;893;-68
2023/07/11 21:52:00;;;;;;;;;;;23.60;63.00;;;22.72;57.14;98850.16;10291905;28;1906;-68
2023/07/11 21:56:55;;;;;;;;;;;23.60;62.90;;;22.73;57.00;98835.03;10290498;28;818;-68
2023/07/11 22:01:51;;;;;;;;;;;23.60;62.90;;;22.74;56.82;98847.34;10288481;28;948;-68
2023/07/11 22:06:46;;;;;;;;;;;23.60;62.90;;;22.73;57.21;98835.03;10290290;28;845;-68
2023/07/11 22:11:42;;;;;;;;;;;23.60;63.00;;;22.72;57.26;98836.84;10290094;28;1918;-68
2023/07/11 22:16:37;;;;;;;;;;;23.60;63.10;;;22.72;57.09;98842.16;10289923;28;896;-68
2023/07/11 22:21:32;;;;;;;;;;;23.70;63.00;;;22.73;57.25;98840.34;10289286;28;1148;-69
2023/07/11 22:26:28;;;;;;;;;;;23.60;62.90;;;22.73;56.88;98840.34;10289013;28;861;-68
2023/07/11 22:31:23;;;;;;;;;;;23.70;63.00;;;22.73;57.12;98829.72;10288668;28;1910;-68
2023/07/11 22:36:19;;;;;;;;;;;23.70;62.90;;;22.72;57.10;98826.22;10289332;28;833;-68
2023/07/11 22:41:14;;;;;;;;;;;23.70;62.90;;;22.73;57.06;98827.06;10289145;28;774;-68
2023/07/11 22:46:10;;;;;;;;;;;23.70;62.90;;;22.73;56.99;98819.09;10288700;28;790;-68